This is the latest recevied weather packets stored in our database for station/object KC7KGF. If no packets are shown the sender has not sent any weather packets the latest 10 day(s).
| Time | Temp. | Humidity | Pressure | Rain* | Wind** | Luminosity | Snow |
|---|---|---|---|---|---|---|---|
| 1777910734 | 15.56° C | 49% | 1018.8 hPa | 0 mm | - | - | - |
| 1777908938 | 15° C | 51% | 1018.5 hPa | 0 mm | - | - | - |
| 1777907126 | 14.44° C | 57% | 1018.1 hPa | 0 mm | - | - | - |
| 1777905341 | 13.89° C | 59% | 1018.1 hPa | 0 mm | - | - | - |
| 1777903539 | 13.33° C | 60% | 1018.2 hPa | 0 mm | - | - | - |
| 1777901734 | 13.33° C | 61% | 1018 hPa | 0 mm | - | - | - |
| 1777899951 | 12.22° C | 65% | 1017.5 hPa | 0 mm | - | - | - |
| 1777898145 | 11.11° C | 65% | 1017.3 hPa | 0 mm | - | - | - |
| 1777896331 | 12.22° C | 61% | 1017.3 hPa | 0 mm | - | - | - |
| 1777894523 | 13.33° C | 60% | 1017.5 hPa | 0 mm | - | - | - |
| 1777892741 | 13.33° C | 61% | 1017.7 hPa | 0 mm | - | - | - |
| 1777890936 | 13.89° C | 58% | 1017.7 hPa | 0 mm | - | - | - |
| 1777889125 | 13.89° C | 56% | 1018 hPa | 0 mm | - | - | - |
| 1777887347 | 13.89° C | 57% | 1017.3 hPa | 0 mm | - | - | - |
| 1777885536 | 14.44° C | 54% | 1017.2 hPa | 0 mm | - | - | - |
| 1777883731 | 14.44° C | 51% | 1017.7 hPa | 0 mm | - | - | - |
| 1777881929 | 15° C | 50% | 1017.8 hPa | 0 mm | - | - | - |
| 1777880124 | 15.56° C | 45% | 1017.9 hPa | 0 mm | - | - | - |
| 1777878330 | 15.56° C | 38% | 1017.8 hPa | 0 mm | - | - | - |
| 1777876531 | 16.11° C | 34% | 1017.7 hPa | 0 mm | - | - | - |
| 1777874733 | 16.67° C | 33% | 1017.8 hPa | 0 mm | - | - | - |
| 1777872928 | 17.22° C | 32% | 1017.9 hPa | 0 mm | - | - | - |
| 1777871126 | 17.78° C | 31% | 1018.1 hPa | 0 mm | - | - | - |
| 1777869339 | 18.33° C | 30% | 1017.8 hPa | 0 mm | - | - | - |
| 1777867527 | 18.89° C | 28% | 1017.3 hPa | 0 mm | - | - | - |
* Rain latest hour (hover to see other rain measurements)
** Current wind speed in m/s (hover to see current wind gust speed)